FranceFixed distance
Ardennes Méga Trail
23 Jun2018
Distance
93km
Finishers
279258 men21 women
Winning time
10:38:47h
Median pace
5.63km/h
Pace distribution
279 finishers · 4.60–8.73 km/h · mean 5.74
Every finisher ran the same 93 km course, so these paces are directly comparable.
Histogram of finisher pace. 279 finishers ranged from 4.60 to 8.73 kilometres per hour, with a mean of 5.74 and a median of 5.63. The busiest band is 5.5 to 6.0 kilometres per hour, with 80 finishers.
Results
Ranks 201–250 of 279
| Rank | Runner | Time | Pace | Cat. | Placing |
|---|---|---|---|---|---|
| 201 | Pirlot, Jean-FrancoisBelgiumMan | 17:48:22h | 5.22 | M35 | 189th M · 41st M35 |
| 202 | Sowinski, FabriceFranceMan | 17:48:22h | 5.22 | M40 | 189th M · 45th M40 |
| 203 | Kronus, JoelFranceMan | 17:51:04h | 5.21 | M50 | 191st M · 15th M50 |
| 204 | Holuigue, FredericFranceMan | 17:51:04h | 5.21 | M40 | 191st M · 46th M40 |
| 205 | Ghio, LaurentFranceMan | 17:51:18h | 5.21 | M45 | 193rd M · 46th M45 |
| 206 | van Beem, ChristianNetherlandsMan | 17:52:50h | 5.20 | M45 | 194th M · 47th M45 |
| 207 | Champion, NicolasFranceMan | 17:53:58h | 5.20 | M35 | 195th M · 42nd M35 |
| 208 | van Meulder, NicoBelgiumMan | 18:00:10h | 5.17 | M40 | 196th M · 47th M40 |
| 209 | Verheyden, PeterBelgiumMan | 18:00:10h | 5.17 | M45 | 196th M · 48th M45 |
| 210 | Maesani, MatthieuFranceMan | 18:01:52h | 5.16 | M35 | 198th M · 43rd M35 |
| 211 | Murot, JoachimFranceMan | 18:04:44h | 5.14 | M35 | 199th M · 44th M35 |
| 212 | Richalot, NicolasFranceMan | 18:05:09h | 5.14 | M40 | 200th M · 48th M40 |
| 213 | Vandewoestyne, BartBelgiumMan | 18:07:05h | 5.13 | M40 | 201st M · 49th M40 |
| 214 | Fontaine, DenisFranceMan | 18:07:06h | 5.13 | M55 | 202nd M · 6th M55 |
| 215 | Darnieaud, RomainFranceMan | 18:08:08h | 5.13 | M35 | 203rd M · 45th M35 |
| 216 | Huart, TeddyFranceMan | 18:08:35h | 5.13 | M35 | 204th M · 46th M35 |
| 217 | de Wulf, ValeryBelgiumMan | 18:14:26h | 5.10 | M40 | 205th M · 50th M40 |
| 218 | Ramsey, IanBelgiumMan | 18:14:32h | 5.10 | M40 | 206th M · 51st M40 |
| 219 | Ferguson, ClaireGreat BritainWoman | 18:17:35h | 5.08 | W35 | 13th F · 1st W35 |
| 220 | Isenbart, Jean-GuillaumeFranceMan | 18:21:04h | 5.07 | M35 | 207th M · 47th M35 |
| 221 | Dubreux Tempremant, CelineFranceWoman | 18:32:49h | 5.01 | W40 | 14th F · 4th W40 |
| 222 | Delord, CatherineFranceWoman | 18:32:49h | 5.01 | W45 | 14th F · 5th W45 |
| 223 | Duculot, Jean-MichelBelgiumMan | 18:32:52h | 5.01 | M40 | 208th M · 52nd M40 |
| 224 | Jeannesson, JonathanFranceMan | 18:33:54h | 5.01 | M23 | 209th M · 40th M23 |
| 225 | van de Woestyne, FreddyFranceMan | 18:36:46h | 5.00 | M23 | 210th M · 41st M23 |
| 226 | Marcilly, DamienFranceMan | 18:36:49h | 5.00 | M23 | 211th M · 42nd M23 |
| 227 | Preux, DavyFranceMan | 18:37:49h | 4.99 | M35 | 212th M · 48th M35 |
| 228 | Kech, MichaelBelgiumMan | 18:42:32h | 4.97 | M40 | 213th M · 53rd M40 |
| 229 | Siecker, DamienBelgiumMan | 18:43:44h | 4.97 | M23 | 214th M · 43rd M23 |
| 230 | Clermont Siecker, AdelineFranceWoman | 18:43:45h | 4.97 | W35 | 16th F · 2nd W35 |
| 231 | Tremble, PascalFranceMan | 18:43:45h | 4.97 | M45 | 215th M · 49th M45 |
| 232 | Lenoble, JonathanFranceMan | 18:43:56h | 4.96 | M23 | 216th M · 44th M23 |
| 233 | Jaunel, AurelienFranceMan | 18:43:57h | 4.96 | M23 | 217th M · 45th M23 |
| 234 | Pitou, GabrielFranceMan | 18:44:42h | 4.96 | M35 | 218th M · 49th M35 |
| 235 | Weber, MarcusGermanyMan | 18:45:27h | 4.96 | M45 | 219th M · 50th M45 |
| 236 | Leclet, DamienFranceMan | 18:45:32h | 4.96 | M23 | 220th M · 46th M23 |
| 237 | Segouin, AlexandreFranceMan | 18:45:32h | 4.96 | M45 | 220th M · 51st M45 |
| 238 | Hallier, VincentFranceMan | 18:45:33h | 4.96 | M35 | 222nd M · 50th M35 |
| 239 | Coutelet, JeromeFranceMan | 18:45:33h | 4.96 | M35 | 222nd M · 50th M35 |
| 240 | Vaja da Concessdo, MickaelFranceMan | 18:45:33h | 4.96 | M35 | 222nd M · 50th M35 |
| 241 | Bogni, DominiqueFranceMan | 18:45:33h | 4.96 | M50 | 222nd M · 16th M50 |
| 242 | Bourrada, BrahimFranceMan | 18:45:43h | 4.96 | M50 | 226th M · 17th M50 |
| 243 | Rouse, ArnaudFranceMan | 18:46:22h | 4.95 | M40 | 227th M · 54th M40 |
| 244 | Rousselle, OlivierFranceMan | 18:46:48h | 4.95 | M50 | 228th M · 18th M50 |
| 245 | Millie, BernardFranceMan | 18:46:54h | 4.95 | M55 | 229th M · 7th M55 |
| 246 | Boone, ArnaudFranceMan | 18:47:20h | 4.95 | M45 | 230th M · 52nd M45 |
| 247 | Dablement, PascalFranceMan | 18:49:01h | 4.94 | M40 | 231st M · 55th M40 |
| 248 | Aubert, FranckFranceMan | 18:49:02h | 4.94 | M40 | 232nd M · 56th M40 |
| 249 | Le Moal, HerveFranceMan | 18:50:05h | 4.94 | M40 | 233rd M · 57th M40 |
| 250 | Vigreux, JeromeFranceMan | 18:57:49h | 4.90 | M40 | 234th M · 58th M40 |
- 201Pirlot, Jean-FrancoisBelgiumMan189th M · 41st M35Time17:48:22hPace5.22Cat.M35
- 202Sowinski, FabriceFranceMan189th M · 45th M40Time17:48:22hPace5.22Cat.M40
- 203Kronus, JoelFranceMan191st M · 15th M50Time17:51:04hPace5.21Cat.M50
- 204Holuigue, FredericFranceMan191st M · 46th M40Time17:51:04hPace5.21Cat.M40
- 205Ghio, LaurentFranceMan193rd M · 46th M45Time17:51:18hPace5.21Cat.M45
- 206van Beem, ChristianNetherlandsMan194th M · 47th M45Time17:52:50hPace5.20Cat.M45
- 207Champion, NicolasFranceMan195th M · 42nd M35Time17:53:58hPace5.20Cat.M35
- 208van Meulder, NicoBelgiumMan196th M · 47th M40Time18:00:10hPace5.17Cat.M40
- 209Verheyden, PeterBelgiumMan196th M · 48th M45Time18:00:10hPace5.17Cat.M45
- 210Maesani, MatthieuFranceMan198th M · 43rd M35Time18:01:52hPace5.16Cat.M35
- 211Murot, JoachimFranceMan199th M · 44th M35Time18:04:44hPace5.14Cat.M35
- 212Richalot, NicolasFranceMan200th M · 48th M40Time18:05:09hPace5.14Cat.M40
- 213Vandewoestyne, BartBelgiumMan201st M · 49th M40Time18:07:05hPace5.13Cat.M40
- 214Fontaine, DenisFranceMan202nd M · 6th M55Time18:07:06hPace5.13Cat.M55
- 215Darnieaud, RomainFranceMan203rd M · 45th M35Time18:08:08hPace5.13Cat.M35
- 216Huart, TeddyFranceMan204th M · 46th M35Time18:08:35hPace5.13Cat.M35
- 217de Wulf, ValeryBelgiumMan205th M · 50th M40Time18:14:26hPace5.10Cat.M40
- 218Ramsey, IanBelgiumMan206th M · 51st M40Time18:14:32hPace5.10Cat.M40
- 219Ferguson, ClaireGreat BritainWoman13th F · 1st W35Time18:17:35hPace5.08Cat.W35
- 220Isenbart, Jean-GuillaumeFranceMan207th M · 47th M35Time18:21:04hPace5.07Cat.M35
- 221Dubreux Tempremant, CelineFranceWoman14th F · 4th W40Time18:32:49hPace5.01Cat.W40
- 222Delord, CatherineFranceWoman14th F · 5th W45Time18:32:49hPace5.01Cat.W45
- 223Duculot, Jean-MichelBelgiumMan208th M · 52nd M40Time18:32:52hPace5.01Cat.M40
- 224Jeannesson, JonathanFranceMan209th M · 40th M23Time18:33:54hPace5.01Cat.M23
- 225van de Woestyne, FreddyFranceMan210th M · 41st M23Time18:36:46hPace5.00Cat.M23
- 226Marcilly, DamienFranceMan211th M · 42nd M23Time18:36:49hPace5.00Cat.M23
- 227Preux, DavyFranceMan212th M · 48th M35Time18:37:49hPace4.99Cat.M35
- 228Kech, MichaelBelgiumMan213th M · 53rd M40Time18:42:32hPace4.97Cat.M40
- 229Siecker, DamienBelgiumMan214th M · 43rd M23Time18:43:44hPace4.97Cat.M23
- 230Clermont Siecker, AdelineFranceWoman16th F · 2nd W35Time18:43:45hPace4.97Cat.W35
- 231Tremble, PascalFranceMan215th M · 49th M45Time18:43:45hPace4.97Cat.M45
- 232Lenoble, JonathanFranceMan216th M · 44th M23Time18:43:56hPace4.96Cat.M23
- 233Jaunel, AurelienFranceMan217th M · 45th M23Time18:43:57hPace4.96Cat.M23
- 234Pitou, GabrielFranceMan218th M · 49th M35Time18:44:42hPace4.96Cat.M35
- 235Weber, MarcusGermanyMan219th M · 50th M45Time18:45:27hPace4.96Cat.M45
- 236Leclet, DamienFranceMan220th M · 46th M23Time18:45:32hPace4.96Cat.M23
- 237Segouin, AlexandreFranceMan220th M · 51st M45Time18:45:32hPace4.96Cat.M45
- 238Hallier, VincentFranceMan222nd M · 50th M35Time18:45:33hPace4.96Cat.M35
- 239Coutelet, JeromeFranceMan222nd M · 50th M35Time18:45:33hPace4.96Cat.M35
- 240Vaja da Concessdo, MickaelFranceMan222nd M · 50th M35Time18:45:33hPace4.96Cat.M35
- 241Bogni, DominiqueFranceMan222nd M · 16th M50Time18:45:33hPace4.96Cat.M50
- 242Bourrada, BrahimFranceMan226th M · 17th M50Time18:45:43hPace4.96Cat.M50
- 243Rouse, ArnaudFranceMan227th M · 54th M40Time18:46:22hPace4.95Cat.M40
- 244Rousselle, OlivierFranceMan228th M · 18th M50Time18:46:48hPace4.95Cat.M50
- 245Millie, BernardFranceMan229th M · 7th M55Time18:46:54hPace4.95Cat.M55
- 246Boone, ArnaudFranceMan230th M · 52nd M45Time18:47:20hPace4.95Cat.M45
- 247Dablement, PascalFranceMan231st M · 55th M40Time18:49:01hPace4.94Cat.M40
- 248Aubert, FranckFranceMan232nd M · 56th M40Time18:49:02hPace4.94Cat.M40
- 249Le Moal, HerveFranceMan233rd M · 57th M40Time18:50:05hPace4.94Cat.M40
- 250Vigreux, JeromeFranceMan234th M · 58th M40Time18:57:49hPace4.90Cat.M40
Showing ranks 201–250 of 279